Airfield :
LOGIN :

Register | Disclaimer

   EN    FR    IT 

 










Legend :    VFR   Marginal VFR   IFR   Intensive IFR   Very Intensive IFR
Visi :
Ceiling :
>= 8 km
>= 3000ft
5 to 8 km
1000 to 3000 ft
1500m to 5 km
500 to 1000 ft
800 to 1500m
200 to 500 ft
< 800m
< 200 ft
Symbols :   Thunderstorms  Fog  Heavy snow  Heavy precipitations  Wind > 20 kt
SIGMETs :     Misc.  Thunderstorms  Icing  Turbulence  Mountain Waves  Volcanic Ashes






- Airport Elevation : 154 ft
- IATA code : PKV


ULOO - Pskov

CURRENT METAR :
  • 071800Z 23002MPS CAVOK 17/12 Q1008 R19/090070 NOSIG RMK QFE752

EXPIRED METARs :
  • 071730Z 25002MPS 220V280 CAVOK 18/11 Q1008 R19/090070 NOSIG RMK QFE752
  • 071700Z 25002MPS CAVOK 18/11 Q1008 R19/090070 NOSIG RMK QFE752
  • 071630Z 24003MPS 9999 SCT043 19/11 Q1008 R19/090070 NOSIG RMK QFE752
  • 071600Z 22003MPS 190V260 9999 SCT040 19/11 Q1008 R19/090070 NOSIG RMK QFE751
  • 071530Z 25004MPS 9999 SCT040 20/10 Q1008 R19/090070 NOSIG RMK QFE751

TAF TAF ULOO
Valid from the 07 at 18:00 until the 08 at 03:00 UTC


071653Z 0718/0803 25003MPS 9999 BKN030
TEMPO 0718/0803 -SHRA BKN020CB



MET'MAP, your aeronautical weather chart ! - Copyright ORBIFLY December 2007 - Disclaimer

ORBIFLY MET'MAP TEAM :

Programming & Development : Alexandra Zaïnal
Concept & original design : Baudouin d'Aumeries
Assistance for programming : Marc-Olivier Méhu
Technical & hardware support : Manuel Goepfert

Contact : metmap@orbifly.com




SOURCES & CREDITS :

   NOAA